sensor_id;sensor_type;location;lat;lon;timestamp;pressure;altitude;pressure_sealevel;temperature;humidity
1472;BME280;963;42.644;23.336;2023-03-02T00:02:15;94512.25;;;5.88;88.77
1472;BME280;963;42.644;23.336;2023-03-02T00:04:49;94480.13;;;6.17;86.64
1472;BME280;963;42.644;23.336;2023-03-02T00:07:27;94490.38;;;6.22;86.55
1472;BME280;963;42.644;23.336;2023-03-02T00:09:56;94497.31;;;6.39;85.18
1472;BME280;963;42.644;23.336;2023-03-02T00:12:22;94512.59;;;6.49;83.93
1472;BME280;963;42.644;23.336;2023-03-02T00:14:47;94500.44;;;6.66;83.32
1472;BME280;963;42.644;23.336;2023-03-02T00:17:13;94497.78;;;6.41;83.88
1472;BME280;963;42.644;23.336;2023-03-02T00:19:38;94502.81;;;6.58;82.87
1472;BME280;963;42.644;23.336;2023-03-02T00:22:04;94490.09;;;6.57;82.57
1472;BME280;963;42.644;23.336;2023-03-02T00:24:30;94482.22;;;6.45;82.93
1472;BME280;963;42.644;23.336;2023-03-02T00:26:55;94479.47;;;6.41;84.32
1472;BME280;963;42.644;23.336;2023-03-02T00:29:21;94473.63;;;6.44;83.17
1472;BME280;963;42.644;23.336;2023-03-02T00:31:46;94483.06;;;6.37;83.02
1472;BME280;963;42.644;23.336;2023-03-02T00:34:12;94462.84;;;6.25;83.52
1472;BME280;963;42.644;23.336;2023-03-02T00:36:37;94471.34;;;6.22;84.22
1472;BME280;963;42.644;23.336;2023-03-02T00:39:03;94459.16;;;6.26;83.88
1472;BME280;963;42.644;23.336;2023-03-02T00:41:29;94460.88;;;6.43;83.00
1472;BME280;963;42.644;23.336;2023-03-02T00:43:54;94474.38;;;6.45;82.50
1472;BME280;963;42.644;23.336;2023-03-02T00:46:21;94460.47;;;5.99;83.73
1472;BME280;963;42.644;23.336;2023-03-02T00:48:47;94446.13;;;6.05;83.86
1472;BME280;963;42.644;23.336;2023-03-02T00:51:14;94455.38;;;6.03;83.59
1472;BME280;963;42.644;23.336;2023-03-02T00:53:39;94454.16;;;6.00;84.24
1472;BME280;963;42.644;23.336;2023-03-02T00:56:06;94435.78;;;5.97;84.86
1472;BME280;963;42.644;23.336;2023-03-02T00:58:32;94444.47;;;6.21;84.39
1472;BME280;963;42.644;23.336;2023-03-02T01:01:03;94451.41;;;6.50;82.29
1472;BME280;963;42.644;23.336;2023-03-02T01:03:28;94449.44;;;6.35;82.72
1472;BME280;963;42.644;23.336;2023-03-02T01:05:54;94433.97;;;6.42;82.44
1472;BME280;963;42.644;23.336;2023-03-02T01:08:22;94447.13;;;6.79;81.34
1472;BME280;963;42.644;23.336;2023-03-02T01:10:49;94439.19;;;6.87;80.86
1472;BME280;963;42.644;23.336;2023-03-02T01:13:16;94422.38;;;6.31;83.22
1472;BME280;963;42.644;23.336;2023-03-02T01:15:41;94442.31;;;6.69;82.11
1472;BME280;963;42.644;23.336;2023-03-02T01:18:07;94426.88;;;6.76;81.90
1472;BME280;963;42.644;23.336;2023-03-02T01:20:32;94421.97;;;6.99;80.24
1472;BME280;963;42.644;23.336;2023-03-02T01:22:57;94433.53;;;6.98;80.34
1472;BME280;963;42.644;23.336;2023-03-02T01:25:23;94433.75;;;6.80;80.46
1472;BME280;963;42.644;23.336;2023-03-02T01:27:48;94438.44;;;6.42;82.89
1472;BME280;963;42.644;23.336;2023-03-02T01:30:14;94432.50;;;6.66;81.13
1472;BME280;963;42.644;23.336;2023-03-02T01:32:40;94430.84;;;6.49;82.19
1472;BME280;963;42.644;23.336;2023-03-02T01:35:06;94428.81;;;6.67;82.11
1472;BME280;963;42.644;23.336;2023-03-02T01:37:31;94431.09;;;6.68;80.92
1472;BME280;963;42.644;23.336;2023-03-02T01:39:56;94440.50;;;6.36;83.21
1472;BME280;963;42.644;23.336;2023-03-02T01:42:22;94432.31;;;6.71;81.46
1472;BME280;963;42.644;23.336;2023-03-02T01:44:50;94427.66;;;6.43;81.89
1472;BME280;963;42.644;23.336;2023-03-02T01:49:51;94417.41;;;6.83;80.20
1472;BME280;963;42.644;23.336;2023-03-02T01:52:18;94408.91;;;6.99;79.12
1472;BME280;963;42.644;23.336;2023-03-02T01:54:46;94409.56;;;6.83;80.32
1472;BME280;963;42.644;23.336;2023-03-02T01:57:16;94413.00;;;6.63;81.11
1472;BME280;963;42.644;23.336;2023-03-02T01:59:44;94407.16;;;6.90;80.00
1472;BME280;963;42.644;23.336;2023-03-02T02:02:10;94408.59;;;7.12;79.03
1472;BME280;963;42.644;23.336;2023-03-02T02:04:39;94432.78;;;7.21;78.48
1472;BME280;963;42.644;23.336;2023-03-02T02:07:07;94393.13;;;7.19;78.21
1472;BME280;963;42.644;23.336;2023-03-02T02:09:37;94401.38;;;6.73;79.81
1472;BME280;963;42.644;23.336;2023-03-02T02:12:03;94403.44;;;6.67;81.57
1472;BME280;963;42.644;23.336;2023-03-02T02:14:30;94402.69;;;7.03;79.33
1472;BME280;963;42.644;23.336;2023-03-02T02:16:55;94411.19;;;6.88;79.55
1472;BME280;963;42.644;23.336;2023-03-02T02:21:49;94416.69;;;7.07;78.83
1472;BME280;963;42.644;23.336;2023-03-02T02:24:21;94397.78;;;7.02;79.30
1472;BME280;963;42.644;23.336;2023-03-02T02:26:54;94409.25;;;7.21;78.29
1472;BME280;963;42.644;23.336;2023-03-02T02:29:29;94405.31;;;7.03;78.52
1472;BME280;963;42.644;23.336;2023-03-02T02:32:02;94431.59;;;6.49;82.06
1472;BME280;963;42.644;23.336;2023-03-02T02:34:43;94414.97;;;6.54;81.08
1472;BME280;963;42.644;23.336;2023-03-02T02:37:14;94417.16;;;6.31;81.88
1472;BME280;963;42.644;23.336;2023-03-02T02:39:45;94410.16;;;6.44;81.28
1472;BME280;963;42.644;23.336;2023-03-02T02:42:20;94413.13;;;6.67;81.34
1472;BME280;963;42.644;23.336;2023-03-02T02:44:48;94404.22;;;6.80;80.59
1472;BME280;963;42.644;23.336;2023-03-02T02:47:17;94409.34;;;6.88;79.68
1472;BME280;963;42.644;23.336;2023-03-02T02:49:45;94414.91;;;6.99;78.56
1472;BME280;963;42.644;23.336;2023-03-02T02:52:14;94415.28;;;6.65;81.06
1472;BME280;963;42.644;23.336;2023-03-02T02:54:43;94393.44;;;6.81;79.61
1472;BME280;963;42.644;23.336;2023-03-02T02:57:11;94401.28;;;6.94;79.66
1472;BME280;963;42.644;23.336;2023-03-02T02:59:48;94397.03;;;7.01;79.18
1472;BME280;963;42.644;23.336;2023-03-02T03:02:21;94398.00;;;6.97;79.22
1472;BME280;963;42.644;23.336;2023-03-02T03:04:47;94408.75;;;6.58;80.32
1472;BME280;963;42.644;23.336;2023-03-02T03:07:20;94405.16;;;6.63;80.91
1472;BME280;963;42.644;23.336;2023-03-02T03:09:52;94397.59;;;6.70;80.74
1472;BME280;963;42.644;23.336;2023-03-02T03:12:21;94391.59;;;6.94;79.37
1472;BME280;963;42.644;23.336;2023-03-02T03:14:49;94402.47;;;6.84;79.59
1472;BME280;963;42.644;23.336;2023-03-02T03:17:15;94387.22;;;6.74;79.87
1472;BME280;963;42.644;23.336;2023-03-02T03:19:42;94396.22;;;6.52;81.60
1472;BME280;963;42.644;23.336;2023-03-02T03:22:10;94397.97;;;6.48;81.41
1472;BME280;963;42.644;23.336;2023-03-02T03:24:39;94397.00;;;6.19;82.86
1472;BME280;963;42.644;23.336;2023-03-02T03:27:07;94388.41;;;6.19;82.56
1472;BME280;963;42.644;23.336;2023-03-02T03:29:35;94404.56;;;6.33;82.57
1472;BME280;963;42.644;23.336;2023-03-02T03:32:02;94395.00;;;6.37;81.88
1472;BME280;963;42.644;23.336;2023-03-02T03:34:29;94395.38;;;6.15;82.97
1472;BME280;963;42.644;23.336;2023-03-02T03:36:55;94395.00;;;6.37;82.26
1472;BME280;963;42.644;23.336;2023-03-02T03:39:29;94405.13;;;6.39;81.76
1472;BME280;963;42.644;23.336;2023-03-02T03:41:54;94399.88;;;6.72;80.82
1472;BME280;963;42.644;23.336;2023-03-02T03:44:20;94389.16;;;6.65;80.55
1472;BME280;963;42.644;23.336;2023-03-02T03:46:46;94409.66;;;6.75;79.92
1472;BME280;963;42.644;23.336;2023-03-02T03:49:11;94400.88;;;6.34;82.52
1472;BME280;963;42.644;23.336;2023-03-02T03:51:37;94403.44;;;6.22;82.00
1472;BME280;963;42.644;23.336;2023-03-02T03:54:04;94409.63;;;6.50;81.72
1472;BME280;963;42.644;23.336;2023-03-02T03:56:35;94392.88;;;6.64;80.80
1472;BME280;963;42.644;23.336;2023-03-02T03:59:01;94390.09;;;6.36;80.60
1472;BME280;963;42.644;23.336;2023-03-02T04:01:42;94391.34;;;6.63;80.61
1472;BME280;963;42.644;23.336;2023-03-02T04:04:11;94405.59;;;6.20;81.78
1472;BME280;963;42.644;23.336;2023-03-02T04:06:37;94402.72;;;6.01;84.01
1472;BME280;963;42.644;23.336;2023-03-02T04:09:03;94398.88;;;6.31;82.21
1472;BME280;963;42.644;23.336;2023-03-02T04:11:31;94399.03;;;6.02;84.12
1472;BME280;963;42.644;23.336;2023-03-02T04:13:57;94394.63;;;6.26;82.19
1472;BME280;963;42.644;23.336;2023-03-02T04:16:22;94395.22;;;6.32;81.67
1472;BME280;963;42.644;23.336;2023-03-02T04:18:48;94394.78;;;6.42;81.54
1472;BME280;963;42.644;23.336;2023-03-02T04:21:13;94387.13;;;6.25;81.37
1472;BME280;963;42.644;23.336;2023-03-02T04:23:38;94395.34;;;6.03;84.53
1472;BME280;963;42.644;23.336;2023-03-02T04:26:04;94394.59;;;6.14;82.95
1472;BME280;963;42.644;23.336;2023-03-02T04:28:30;94391.25;;;6.26;82.93
1472;BME280;963;42.644;23.336;2023-03-02T04:30:56;94389.81;;;6.49;81.83
1472;BME280;963;42.644;23.336;2023-03-02T04:33:21;94404.97;;;6.23;82.99
1472;BME280;963;42.644;23.336;2023-03-02T04:35:47;94385.69;;;6.15;83.16
1472;BME280;963;42.644;23.336;2023-03-02T04:38:12;94388.91;;;6.33;82.75
1472;BME280;963;42.644;23.336;2023-03-02T04:40:37;94406.09;;;6.34;82.41
1472;BME280;963;42.644;23.336;2023-03-02T04:43:03;94400.16;;;5.92;84.30
1472;BME280;963;42.644;23.336;2023-03-02T04:45:28;94402.75;;;5.71;86.61
1472;BME280;963;42.644;23.336;2023-03-02T04:47:54;94395.91;;;5.67;86.88
1472;BME280;963;42.644;23.336;2023-03-02T04:50:19;94404.94;;;5.69;87.06
1472;BME280;963;42.644;23.336;2023-03-02T04:52:45;94412.41;;;5.50;89.10
1472;BME280;963;42.644;23.336;2023-03-02T04:55:19;94402.06;;;5.62;87.99
1472;BME280;963;42.644;23.336;2023-03-02T04:57:45;94405.88;;;5.64;88.08
1472;BME280;963;42.644;23.336;2023-03-02T05:00:11;94410.06;;;5.57;88.44
1472;BME280;963;42.644;23.336;2023-03-02T05:02:37;94414.56;;;5.48;89.20
1472;BME280;963;42.644;23.336;2023-03-02T05:05:03;94415.69;;;5.68;88.59
1472;BME280;963;42.644;23.336;2023-03-02T05:07:29;94402.72;;;5.59;88.69
1472;BME280;963;42.644;23.336;2023-03-02T05:09:54;94417.72;;;5.83;87.80
1472;BME280;963;42.644;23.336;2023-03-02T05:12:19;94399.72;;;5.69;87.97
1472;BME280;963;42.644;23.336;2023-03-02T05:14:46;94427.03;;;5.92;87.52
1472;BME280;963;42.644;23.336;2023-03-02T05:17:11;94403.97;;;5.74;87.78
1472;BME280;963;42.644;23.336;2023-03-02T05:19:37;94421.84;;;5.84;87.61
1472;BME280;963;42.644;23.336;2023-03-02T05:22:02;94403.31;;;5.56;88.50
1472;BME280;963;42.644;23.336;2023-03-02T05:24:28;94418.94;;;5.64;90.07
1472;BME280;963;42.644;23.336;2023-03-02T05:26:53;94410.00;;;5.95;88.19
1472;BME280;963;42.644;23.336;2023-03-02T05:29:19;94434.13;;;5.83;87.63
1472;BME280;963;42.644;23.336;2023-03-02T05:31:45;94433.16;;;5.97;87.46
1472;BME280;963;42.644;23.336;2023-03-02T05:34:13;94430.13;;;5.86;87.45
1472;BME280;963;42.644;23.336;2023-03-02T05:36:40;94441.56;;;6.02;87.45
1472;BME280;963;42.644;23.336;2023-03-02T05:39:06;94423.59;;;6.01;87.72
1472;BME280;963;42.644;23.336;2023-03-02T05:41:32;94443.16;;;6.27;86.17
1472;BME280;963;42.644;23.336;2023-03-02T05:43:57;94426.88;;;5.89;86.85
1472;BME280;963;42.644;23.336;2023-03-02T05:46:23;94423.84;;;6.08;86.57
1472;BME280;963;42.644;23.336;2023-03-02T05:48:48;94422.81;;;6.21;85.81
1472;BME280;963;42.644;23.336;2023-03-02T05:51:14;94437.47;;;5.92;87.31
1472;BME280;963;42.644;23.336;2023-03-02T05:53:39;94430.34;;;6.02;87.24
1472;BME280;963;42.644;23.336;2023-03-02T05:56:05;94444.56;;;6.25;85.37
1472;BME280;963;42.644;23.336;2023-03-02T05:58:31;94423.84;;;6.08;87.52
1472;BME280;963;42.644;23.336;2023-03-02T06:00:57;94434.44;;;6.23;86.50
1472;BME280;963;42.644;23.336;2023-03-02T06:03:23;94428.88;;;6.46;85.43
1472;BME280;963;42.644;23.336;2023-03-02T06:05:48;94428.63;;;6.06;87.50
1472;BME280;963;42.644;23.336;2023-03-02T06:08:16;94437.50;;;6.25;86.91
1472;BME280;963;42.644;23.336;2023-03-02T06:10:42;94433.22;;;6.42;86.32
1472;BME280;963;42.644;23.336;2023-03-02T06:13:07;94467.38;;;6.37;85.35
1472;BME280;963;42.644;23.336;2023-03-02T06:15:33;94436.25;;;6.77;83.89
1472;BME280;963;42.644;23.336;2023-03-02T06:17:58;94454.66;;;6.80;83.24
1472;BME280;963;42.644;23.336;2023-03-02T06:20:24;94452.47;;;6.37;83.30
1472;BME280;963;42.644;23.336;2023-03-02T06:22:50;94439.47;;;6.28;84.58
1472;BME280;963;42.644;23.336;2023-03-02T06:25:18;94449.44;;;6.80;82.12
1472;BME280;963;42.644;23.336;2023-03-02T06:27:44;94461.69;;;6.68;82.62
1472;BME280;963;42.644;23.336;2023-03-02T06:30:13;94453.19;;;6.58;83.42
1472;BME280;963;42.644;23.336;2023-03-02T06:32:39;94455.78;;;6.58;83.70
1472;BME280;963;42.644;23.336;2023-03-02T06:35:06;94449.03;;;6.57;83.05
1472;BME280;963;42.644;23.336;2023-03-02T06:37:32;94462.41;;;6.44;84.16
1472;BME280;963;42.644;23.336;2023-03-02T06:39:58;94458.56;;;6.74;82.69
1472;BME280;963;42.644;23.336;2023-03-02T06:42:25;94455.84;;;6.71;82.65
1472;BME280;963;42.644;23.336;2023-03-02T06:44:51;94438.13;;;7.01;82.46
1472;BME280;963;42.644;23.336;2023-03-02T06:47:22;94448.69;;;7.29;81.11
1472;BME280;963;42.644;23.336;2023-03-02T06:49:48;94460.59;;;7.26;80.38
1472;BME280;963;42.644;23.336;2023-03-02T06:52:13;94472.47;;;7.24;80.03
1472;BME280;963;42.644;23.336;2023-03-02T06:54:40;94457.19;;;7.38;80.23
1472;BME280;963;42.644;23.336;2023-03-02T06:57:05;94457.75;;;7.31;79.88
1472;BME280;963;42.644;23.336;2023-03-02T06:59:31;94453.06;;;7.49;79.26
1472;BME280;963;42.644;23.336;2023-03-02T07:01:56;94460.38;;;7.19;79.37
1472;BME280;963;42.644;23.336;2023-03-02T07:04:21;94463.28;;;6.48;83.26
1472;BME280;963;42.644;23.336;2023-03-02T07:06:47;94450.25;;;6.60;83.93
1472;BME280;963;42.644;23.336;2023-03-02T07:09:13;94451.69;;;6.70;83.23
1472;BME280;963;42.644;23.336;2023-03-02T07:11:39;94435.25;;;6.69;83.68
1472;BME280;963;42.644;23.336;2023-03-02T07:14:04;94443.44;;;6.92;83.26
1472;BME280;963;42.644;23.336;2023-03-02T07:16:32;94458.59;;;6.86;81.99
1472;BME280;963;42.644;23.336;2023-03-02T07:18:58;94447.91;;;6.79;81.89
1472;BME280;963;42.644;23.336;2023-03-02T07:21:23;94452.38;;;6.79;81.83
1472;BME280;963;42.644;23.336;2023-03-02T07:23:49;94453.41;;;6.66;82.46
1472;BME280;963;42.644;23.336;2023-03-02T07:26:14;94451.19;;;6.43;83.70
1472;BME280;963;42.644;23.336;2023-03-02T07:28:40;94448.00;;;6.83;83.13
1472;BME280;963;42.644;23.336;2023-03-02T07:31:06;94445.63;;;7.02;82.89
1472;BME280;963;42.644;23.336;2023-03-02T07:33:33;94473.34;;;7.15;82.07
1472;BME280;963;42.644;23.336;2023-03-02T07:35:59;94463.94;;;6.45;84.17
1472;BME280;963;42.644;23.336;2023-03-02T07:38:25;94468.31;;;6.53;83.92
1472;BME280;963;42.644;23.336;2023-03-02T07:40:50;94457.41;;;6.51;83.43
1472;BME280;963;42.644;23.336;2023-03-02T07:43:16;94456.41;;;6.43;83.33
1472;BME280;963;42.644;23.336;2023-03-02T07:45:42;94456.47;;;6.68;83.48
1472;BME280;963;42.644;23.336;2023-03-02T07:48:07;94460.38;;;7.07;82.40
1472;BME280;963;42.644;23.336;2023-03-02T07:50:33;94451.28;;;6.92;81.30
1472;BME280;963;42.644;23.336;2023-03-02T07:52:59;94452.47;;;6.70;81.93
1472;BME280;963;42.644;23.336;2023-03-02T07:55:24;94460.03;;;7.20;80.27
1472;BME280;963;42.644;23.336;2023-03-02T07:57:50;94441.41;;;7.34;80.30
1472;BME280;963;42.644;23.336;2023-03-02T08:00:16;94452.50;;;7.31;79.25
1472;BME280;963;42.644;23.336;2023-03-02T08:02:41;94450.34;;;7.45;79.63
1472;BME280;963;42.644;23.336;2023-03-02T08:05:08;94450.31;;;7.58;78.87
1472;BME280;963;42.644;23.336;2023-03-02T08:07:33;94451.69;;;7.79;78.48
1472;BME280;963;42.644;23.336;2023-03-02T08:09:59;94446.06;;;7.65;79.02
1472;BME280;963;42.644;23.336;2023-03-02T08:12:25;94445.66;;;7.51;78.58
1472;BME280;963;42.644;23.336;2023-03-02T08:14:51;94447.63;;;7.17;78.69
1472;BME280;963;42.644;23.336;2023-03-02T08:17:16;94444.31;;;6.84;80.07
1472;BME280;963;42.644;23.336;2023-03-02T08:19:42;94443.34;;;7.49;79.17
1472;BME280;963;42.644;23.336;2023-03-02T08:22:07;94441.94;;;7.03;80.80
1472;BME280;963;42.644;23.336;2023-03-02T08:24:32;94444.09;;;7.01;81.14
1472;BME280;963;42.644;23.336;2023-03-02T08:27:01;94453.94;;;7.29;81.53
1472;BME280;963;42.644;23.336;2023-03-02T08:29:27;94451.44;;;7.44;83.34
1472;BME280;963;42.644;23.336;2023-03-02T08:31:53;94439.09;;;7.33;82.97
1472;BME280;963;42.644;23.336;2023-03-02T08:34:18;94433.84;;;7.69;80.95
1472;BME280;963;42.644;23.336;2023-03-02T08:36:44;94463.53;;;7.49;79.17
1472;BME280;963;42.644;23.336;2023-03-02T08:39:10;94440.75;;;7.25;81.47
1472;BME280;963;42.644;23.336;2023-03-02T08:41:35;94431.25;;;6.96;83.48
1472;BME280;963;42.644;23.336;2023-03-02T08:44:01;94444.84;;;6.89;86.21
1472;BME280;963;42.644;23.336;2023-03-02T08:46:26;94439.53;;;6.98;84.45
1472;BME280;963;42.644;23.336;2023-03-02T08:48:51;94439.97;;;7.37;83.65
1472;BME280;963;42.644;23.336;2023-03-02T08:51:22;94436.88;;;7.71;82.29
1472;BME280;963;42.644;23.336;2023-03-02T08:53:50;94425.16;;;7.53;81.91
1472;BME280;963;42.644;23.336;2023-03-02T08:56:26;94439.59;;;7.75;80.89
1472;BME280;963;42.644;23.336;2023-03-02T08:58:53;94443.34;;;7.62;80.75
1472;BME280;963;42.644;23.336;2023-03-02T09:01:22;94452.84;;;7.42;82.36
1472;BME280;963;42.644;23.336;2023-03-02T09:03:48;94441.94;;;7.28;82.57
1472;BME280;963;42.644;23.336;2023-03-02T09:06:14;94436.25;;;7.38;83.13
1472;BME280;963;42.644;23.336;2023-03-02T09:08:40;94422.09;;;7.39;84.21
1472;BME280;963;42.644;23.336;2023-03-02T09:11:06;94417.63;;;7.51;82.32
1472;BME280;963;42.644;23.336;2023-03-02T09:13:32;94420.19;;;7.76;82.09
1472;BME280;963;42.644;23.336;2023-03-02T09:15:57;94421.22;;;7.35;82.19
1472;BME280;963;42.644;23.336;2023-03-02T09:18:23;94427.97;;;7.36;82.30
1472;BME280;963;42.644;23.336;2023-03-02T09:20:50;94430.59;;;6.99;85.20
1472;BME280;963;42.644;23.336;2023-03-02T09:23:16;94419.28;;;7.19;83.32
1472;BME280;963;42.644;23.336;2023-03-02T09:25:41;94418.16;;;6.96;84.75
1472;BME280;963;42.644;23.336;2023-03-02T09:28:07;94431.03;;;6.89;82.97
1472;BME280;963;42.644;23.336;2023-03-02T09:30:32;94422.13;;;7.14;84.47
1472;BME280;963;42.644;23.336;2023-03-02T09:32:58;94425.16;;;7.04;84.34
1472;BME280;963;42.644;23.336;2023-03-02T09:35:23;94424.28;;;7.25;83.93
1472;BME280;963;42.644;23.336;2023-03-02T09:37:48;94424.50;;;7.19;83.05
1472;BME280;963;42.644;23.336;2023-03-02T09:40:25;94413.59;;;7.05;84.03
1472;BME280;963;42.644;23.336;2023-03-02T09:46:19;94417.97;;;7.26;82.65
1472;BME280;963;42.644;23.336;2023-03-02T09:51:44;94410.34;;;7.20;83.13
1472;BME280;963;42.644;23.336;2023-03-02T09:54:14;94404.63;;;7.55;82.95
1472;BME280;963;42.644;23.336;2023-03-02T09:56:46;94418.47;;;7.68;80.15
1472;BME280;963;42.644;23.336;2023-03-02T09:59:37;94397.88;;;7.54;80.17
1472;BME280;963;42.644;23.336;2023-03-02T10:02:27;94402.56;;;7.36;79.15
1472;BME280;963;42.644;23.336;2023-03-02T10:04:56;94407.50;;;7.26;78.89
1472;BME280;963;42.644;23.336;2023-03-02T10:07:28;94408.53;;;7.61;79.38
1472;BME280;963;42.644;23.336;2023-03-02T10:10:27;94403.66;;;7.60;81.03
1472;BME280;963;42.644;23.336;2023-03-02T10:18:34;94409.50;;;7.69;79.86
1472;BME280;963;42.644;23.336;2023-03-02T10:21:12;94401.59;;;7.41;81.40
1472;BME280;963;42.644;23.336;2023-03-02T10:24:11;94412.63;;;6.98;81.33
1472;BME280;963;42.644;23.336;2023-03-02T10:26:44;94404.41;;;7.60;80.65
1472;BME280;963;42.644;23.336;2023-03-02T10:34:35;94405.09;;;7.33;80.62
1472;BME280;963;42.644;23.336;2023-03-02T10:37:04;94415.69;;;7.24;79.95
1472;BME280;963;42.644;23.336;2023-03-02T10:39:34;94407.03;;;7.60;79.57
1472;BME280;963;42.644;23.336;2023-03-02T10:42:06;94402.78;;;7.96;78.23
1472;BME280;963;42.644;23.336;2023-03-02T10:44:34;94406.31;;;8.15;77.67
1472;BME280;963;42.644;23.336;2023-03-02T10:47:02;94418.31;;;8.44;76.37
1472;BME280;963;42.644;23.336;2023-03-02T10:52:03;94414.66;;;7.65;76.85
1472;BME280;963;42.644;23.336;2023-03-02T10:54:31;94406.97;;;7.84;77.43
1472;BME280;963;42.644;23.336;2023-03-02T10:56:59;94394.03;;;8.04;76.97
1472;BME280;963;42.644;23.336;2023-03-02T10:59:44;94390.16;;;8.41;75.75
1472;BME280;963;42.644;23.336;2023-03-02T11:02:24;94399.94;;;8.01;76.36
1472;BME280;963;42.644;23.336;2023-03-02T11:04:58;94389.16;;;8.46;75.56
1472;BME280;963;42.644;23.336;2023-03-02T11:07:35;94377.63;;;8.07;76.20
1472;BME280;963;42.644;23.336;2023-03-02T11:10:16;94386.13;;;8.44;74.92
1472;BME280;963;42.644;23.336;2023-03-02T11:12:46;94376.75;;;7.75;76.81
1472;BME280;963;42.644;23.336;2023-03-02T11:18:24;94368.41;;;7.97;75.85
1472;BME280;963;42.644;23.336;2023-03-02T11:20:53;94371.97;;;7.77;76.47
1472;BME280;963;42.644;23.336;2023-03-02T11:23:22;94372.50;;;7.82;76.71
1472;BME280;963;42.644;23.336;2023-03-02T11:25:53;94355.78;;;7.87;76.40
1472;BME280;963;42.644;23.336;2023-03-02T11:31:05;94363.25;;;8.01;74.96
1472;BME280;963;42.644;23.336;2023-03-02T11:33:56;94361.97;;;8.23;76.18
1472;BME280;963;42.644;23.336;2023-03-02T11:36:34;94358.00;;;8.57;74.00
1472;BME280;963;42.644;23.336;2023-03-02T11:39:01;94356.47;;;8.56;74.18
1472;BME280;963;42.644;23.336;2023-03-02T11:41:34;94349.03;;;8.58;74.28
1472;BME280;963;42.644;23.336;2023-03-02T11:44:12;94344.44;;;8.86;72.74
1472;BME280;963;42.644;23.336;2023-03-02T11:46:38;94347.91;;;8.43;73.94
1472;BME280;963;42.644;23.336;2023-03-02T11:49:18;94338.09;;;8.40;73.51
1472;BME280;963;42.644;23.336;2023-03-02T11:51:54;94345.88;;;8.52;73.19
1472;BME280;963;42.644;23.336;2023-03-02T11:54:43;94354.06;;;8.51;72.92
1472;BME280;963;42.644;23.336;2023-03-02T11:57:24;94351.22;;;8.71;73.67
1472;BME280;963;42.644;23.336;2023-03-02T11:59:52;94365.34;;;8.83;72.64
1472;BME280;963;42.644;23.336;2023-03-02T12:02:18;94351.28;;;8.91;72.12
1472;BME280;963;42.644;23.336;2023-03-02T12:04:46;94341.13;;;9.05;71.55
1472;BME280;963;42.644;23.336;2023-03-02T12:10:06;94355.84;;;9.09;70.74
1472;BME280;963;42.644;23.336;2023-03-02T12:13:25;94350.31;;;9.15;70.30
1472;BME280;963;42.644;23.336;2023-03-02T12:15:35;94360.50;;;9.00;71.90
1472;BME280;963;42.644;23.336;2023-03-02T12:18:02;94357.38;;;8.48;71.68
1472;BME280;963;42.644;23.336;2023-03-02T12:20:28;94348.28;;;8.29;72.74
1472;BME280;963;42.644;23.336;2023-03-02T12:23:05;94353.66;;;8.49;72.02
1472;BME280;963;42.644;23.336;2023-03-02T12:25:40;94344.50;;;7.99;74.21
1472;BME280;963;42.644;23.336;2023-03-02T12:28:28;94340.84;;;7.88;74.57
1472;BME280;963;42.644;23.336;2023-03-02T12:31:07;94343.28;;;8.24;74.05
1472;BME280;963;42.644;23.336;2023-03-02T12:33:47;94346.31;;;8.70;72.89
1472;BME280;963;42.644;23.336;2023-03-02T12:36:17;94335.53;;;8.28;72.40
1472;BME280;963;42.644;23.336;2023-03-02T12:38:57;94346.94;;;8.20;72.47
1472;BME280;963;42.644;23.336;2023-03-02T12:41:43;94330.06;;;8.49;72.34
1472;BME280;963;42.644;23.336;2023-03-02T12:44:33;94351.53;;;8.54;72.51
1472;BME280;963;42.644;23.336;2023-03-02T12:47:13;94352.13;;;8.79;71.08
1472;BME280;963;42.644;23.336;2023-03-02T12:49:45;94370.47;;;8.48;71.71
1472;BME280;963;42.644;23.336;2023-03-02T12:52:32;94337.91;;;8.05;73.11
1472;BME280;963;42.644;23.336;2023-03-02T12:57:28;94337.81;;;8.29;73.26
1472;BME280;963;42.644;23.336;2023-03-02T12:59:55;94365.16;;;8.16;73.07
1472;BME280;963;42.644;23.336;2023-03-02T13:02:26;94331.59;;;8.06;73.36
1472;BME280;963;42.644;23.336;2023-03-02T13:05:00;94328.47;;;8.16;73.21
1472;BME280;963;42.644;23.336;2023-03-02T13:07:42;94341.50;;;8.72;71.75
1472;BME280;963;42.644;23.336;2023-03-02T13:10:36;94319.91;;;8.94;71.33
1472;BME280;963;42.644;23.336;2023-03-02T13:16:17;94312.91;;;8.67;71.17
1472;BME280;963;42.644;23.336;2023-03-02T13:18:43;94314.78;;;8.07;73.45
1472;BME280;963;42.644;23.336;2023-03-02T13:21:12;94310.03;;;7.97;73.61
1472;BME280;963;42.644;23.336;2023-03-02T13:23:45;94337.56;;;7.91;73.83
1472;BME280;963;42.644;23.336;2023-03-02T13:26:40;94307.47;;;8.28;72.89
1472;BME280;963;42.644;23.336;2023-03-02T13:31:36;94300.81;;;8.03;72.97
1472;BME280;963;42.644;23.336;2023-03-02T13:34:02;94307.34;;;8.09;72.65
1472;BME280;963;42.644;23.336;2023-03-02T13:36:35;94310.19;;;7.60;74.63
1472;BME280;963;42.644;23.336;2023-03-02T13:39:03;94301.53;;;7.32;76.74
1472;BME280;963;42.644;23.336;2023-03-02T13:41:35;94293.38;;;7.61;76.63
1472;BME280;963;42.644;23.336;2023-03-02T13:44:18;94297.56;;;7.50;75.55
1472;BME280;963;42.644;23.336;2023-03-02T13:46:45;94298.81;;;7.68;75.70
1472;BME280;963;42.644;23.336;2023-03-02T13:49:11;94292.78;;;7.96;74.57
1472;BME280;963;42.644;23.336;2023-03-02T13:51:41;94293.72;;;8.03;73.86
1472;BME280;963;42.644;23.336;2023-03-02T13:54:18;94280.97;;;8.02;73.80
1472;BME280;963;42.644;23.336;2023-03-02T13:56:45;94291.22;;;7.79;75.27
1472;BME280;963;42.644;23.336;2023-03-02T13:59:16;94297.47;;;7.74;74.89
1472;BME280;963;42.644;23.336;2023-03-02T14:01:42;94297.19;;;7.64;75.03
1472;BME280;963;42.644;23.336;2023-03-02T14:04:15;94298.13;;;7.71;75.24
1472;BME280;963;42.644;23.336;2023-03-02T14:06:42;94279.19;;;7.62;75.62
1472;BME280;963;42.644;23.336;2023-03-02T14:09:08;94284.44;;;7.62;75.11
1472;BME280;963;42.644;23.336;2023-03-02T14:11:39;94285.06;;;7.31;76.20
1472;BME280;963;42.644;23.336;2023-03-02T14:14:06;94293.66;;;7.44;76.27
1472;BME280;963;42.644;23.336;2023-03-02T14:16:35;94284.91;;;7.52;75.78
1472;BME280;963;42.644;23.336;2023-03-02T14:19:02;94288.78;;;7.30;76.98
1472;BME280;963;42.644;23.336;2023-03-02T14:21:27;94276.22;;;7.36;76.47
1472;BME280;963;42.644;23.336;2023-03-02T14:23:53;94296.78;;;7.21;77.50